createdAt,value
2023-02-16T00:01:17.916Z,78.64
2023-02-16T00:03:22.342Z,79.07
2023-02-16T00:05:26.719Z,79.28
2023-02-16T00:07:28.568Z,79.30
2023-02-16T00:09:31.579Z,78.44
2023-02-16T00:11:35.388Z,78.41
2023-02-16T00:13:38.525Z,78.86
2023-02-16T00:15:43.620Z,78.80
2023-02-16T00:17:45.250Z,78.56
2023-02-16T00:19:46.919Z,78.65
2023-02-16T00:21:50.208Z,79.06
2023-02-16T00:23:52.265Z,78.28
2023-02-16T00:25:53.842Z,78.49
2023-02-16T00:27:55.690Z,78.47
2023-02-16T00:29:58.891Z,79.11
2023-02-16T00:32:02.127Z,79.02
2023-02-16T00:34:24.945Z,78.47
2023-02-16T00:36:26.484Z,78.85
2023-02-16T00:38:28.115Z,78.61
2023-02-16T00:40:29.736Z,78.98
2023-02-16T00:42:34.099Z,78.92
2023-02-16T00:44:38.366Z,79.42
2023-02-16T00:46:41.623Z,79.39
2023-02-16T00:48:45.192Z,78.56
2023-02-16T00:50:47.424Z,78.82
2023-02-16T00:52:49.589Z,79.12
2023-02-16T00:54:51.141Z,78.99
2023-02-16T00:56:53.280Z,78.83
2023-02-16T00:58:54.905Z,78.61
2023-02-16T01:01:03.157Z,79.51
2023-02-16T01:03:14.373Z,78.87
2023-02-16T01:05:17.014Z,79.06
2023-02-16T01:07:20.194Z,78.79
2023-02-16T01:09:21.871Z,79.12
2023-02-16T01:11:24.212Z,78.61
2023-02-16T01:13:29.341Z,78.72
2023-02-16T01:15:31.149Z,78.58
2023-02-16T01:17:33.056Z,78.41
2023-02-16T01:19:36.429Z,78.75
2023-02-16T01:21:38.424Z,78.79
2023-02-16T01:23:40.325Z,78.63
2023-02-16T01:25:42.994Z,78.21
2023-02-16T01:27:45.032Z,78.46
2023-02-16T01:29:46.606Z,78.43
2023-02-16T01:31:49.262Z,78.42
2023-02-16T01:33:51.054Z,78.16
2023-02-16T01:35:56.482Z,78.23
2023-02-16T01:37:58.494Z,77.96
2023-02-16T01:40:00.070Z,77.58
2023-02-16T01:42:17.050Z,77.38
2023-02-16T01:44:24.617Z,77.27
2023-02-16T01:46:36.660Z,77.56
2023-02-16T01:48:38.405Z,77.20
2023-02-16T01:50:45.963Z,77.47
2023-02-16T01:52:55.538Z,77.54
2023-02-16T01:55:04.505Z,77.05
2023-02-16T01:57:21.109Z,77.13
2023-02-16T01:59:37.100Z,77.33
2023-02-16T02:01:47.308Z,77.13
2023-02-16T02:03:48.988Z,77.58
2023-02-16T02:05:51.703Z,77.55
2023-02-16T02:07:59.441Z,77.71
2023-02-16T02:10:07.112Z,77.27
2023-02-16T02:12:16.978Z,77.84
2023-02-16T02:14:24.271Z,77.94
2023-02-16T02:16:27.799Z,77.61
2023-02-16T02:18:29.748Z,77.29
2023-02-16T02:20:48.945Z,77.91
2023-02-16T02:23:16.374Z,77.01
2023-02-16T02:25:41.630Z,77.52
2023-02-16T02:27:53.810Z,77.49
2023-02-16T02:30:19.009Z,77.67
2023-02-16T02:32:33.477Z,76.91
2023-02-16T02:34:49.212Z,77.66
2023-02-16T02:37:01.364Z,77.53
2023-02-16T02:39:15.646Z,76.73
2023-02-16T02:41:24.368Z,76.95
2023-02-16T02:43:35.353Z,77.02
2023-02-16T02:45:42.774Z,76.99
2023-02-16T02:47:46.942Z,76.94
2023-02-16T02:49:51.062Z,77.30
2023-02-16T02:51:52.802Z,76.92
2023-02-16T02:54:00.119Z,77.16
2023-02-16T02:56:04.475Z,77.22
2023-02-16T02:58:07.076Z,77.01
2023-02-16T03:00:15.067Z,77.10
2023-02-16T03:02:18.052Z,77.03
2023-02-16T03:04:24.996Z,76.94
2023-02-16T03:06:31.112Z,77.57
2023-02-16T03:08:36.108Z,77.33
2023-02-16T03:10:38.387Z,77.68
2023-02-16T03:12:40.539Z,77.60
2023-02-16T03:14:46.488Z,77.79
2023-02-16T03:16:53.480Z,77.93
2023-02-16T03:18:56.859Z,77.34
2023-02-16T03:20:59.019Z,77.37
2023-02-16T03:23:03.333Z,77.82
2023-02-16T03:25:05.700Z,77.18
2023-02-16T03:27:09.493Z,77.54
2023-02-16T03:29:13.426Z,77.16
2023-02-16T03:31:19.027Z,77.27
2023-02-16T03:33:23.491Z,76.73
2023-02-16T03:35:26.052Z,76.83
2023-02-16T03:37:28.072Z,77.37
2023-02-16T03:39:31.257Z,76.94
2023-02-16T03:41:35.057Z,77.15
2023-02-16T03:43:36.840Z,76.80
2023-02-16T03:45:41.200Z,76.38
2023-02-16T03:47:42.909Z,76.42
2023-02-16T03:49:45.865Z,77.13
2023-02-16T03:51:47.885Z,76.19
2023-02-16T03:53:50.058Z,76.27
2023-02-16T03:55:52.130Z,76.63
2023-02-16T03:57:53.966Z,76.10
2023-02-16T03:59:56.702Z,76.58
2023-02-16T04:01:59.459Z,76.49
2023-02-16T04:04:01.143Z,76.69
2023-02-16T04:06:05.762Z,76.58
2023-02-16T04:08:09.162Z,76.00
2023-02-16T04:10:11.008Z,76.01
2023-02-16T04:12:13.170Z,76.10
2023-02-16T04:14:14.966Z,76.34
2023-02-16T04:16:16.869Z,76.67
2023-02-16T04:18:18.555Z,76.64
2023-02-16T04:20:22.027Z,76.54
2023-02-16T04:22:25.185Z,76.57
2023-02-16T04:24:27.304Z,76.77
2023-02-16T04:26:28.960Z,76.39
2023-02-16T04:28:30.884Z,76.32
2023-02-16T04:30:32.663Z,76.93
2023-02-16T04:32:34.699Z,76.75
2023-02-16T04:34:36.350Z,76.82
2023-02-16T04:36:38.077Z,76.58
2023-02-16T04:38:41.090Z,76.28
2023-02-16T04:40:42.687Z,76.95
2023-02-16T04:42:45.311Z,77.12
2023-02-16T04:44:46.960Z,76.77
2023-02-16T04:46:48.914Z,77.29
2023-02-16T04:48:50.742Z,76.78
2023-02-16T04:50:52.661Z,76.67
2023-02-16T04:52:54.364Z,76.64
2023-02-16T04:54:57.372Z,77.05
2023-02-16T04:56:59.754Z,77.18
2023-02-16T04:59:01.409Z,77.04
2023-02-16T05:01:04.885Z,77.10
2023-02-16T05:03:06.672Z,76.96
2023-02-16T05:05:09.379Z,77.12
2023-02-16T05:07:10.954Z,76.89
2023-02-16T05:09:12.612Z,76.71
2023-02-16T05:11:15.663Z,76.76
2023-02-16T05:13:17.286Z,77.22
2023-02-16T05:15:19.187Z,76.95
2023-02-16T05:17:23.724Z,77.35
2023-02-16T05:19:25.318Z,77.12
2023-02-16T05:21:26.867Z,76.53
2023-02-16T05:23:28.552Z,76.74
2023-02-16T05:25:30.118Z,76.79
2023-02-16T05:27:33.330Z,76.68
2023-02-16T05:29:35.098Z,77.08
2023-02-16T05:31:36.938Z,76.48
2023-02-16T05:33:38.610Z,76.78
2023-02-16T05:35:40.508Z,76.50
2023-02-16T05:37:42.817Z,76.41
2023-02-16T05:39:45.052Z,76.56
2023-02-16T05:41:46.917Z,76.53
2023-02-16T05:43:50.877Z,76.61
2023-02-16T05:45:52.580Z,77.25
2023-02-16T05:47:54.447Z,76.64
2023-02-16T05:49:56.104Z,77.15
2023-02-16T05:51:57.899Z,76.52
2023-02-16T05:53:59.712Z,77.01
2023-02-16T05:56:01.372Z,76.76
2023-02-16T05:58:03.041Z,77.01
2023-02-16T06:00:07.857Z,77.49
2023-02-16T06:02:09.793Z,77.07
2023-02-16T06:04:12.866Z,76.79
2023-02-16T06:06:14.756Z,77.13
2023-02-16T06:08:16.428Z,77.10
2023-02-16T06:10:18.351Z,77.25
2023-02-16T06:12:19.999Z,77.17
2023-02-16T06:14:21.561Z,77.43
2023-02-16T06:16:25.552Z,77.49
2023-02-16T06:18:27.267Z,77.61
2023-02-16T06:20:28.978Z,77.74
2023-02-16T06:22:30.699Z,77.93
2023-02-16T06:24:32.527Z,77.99
2023-02-16T06:26:34.413Z,77.39
2023-02-16T06:28:36.103Z,77.62
2023-02-16T06:30:38.182Z,78.09
2023-02-16T06:32:42.376Z,77.11
2023-02-16T06:34:44.037Z,77.38
2023-02-16T06:36:45.778Z,77.88
2023-02-16T06:38:47.738Z,77.74
2023-02-16T06:40:51.827Z,77.51
2023-02-16T06:42:53.462Z,77.60
2023-02-16T06:44:55.317Z,77.50
2023-02-16T06:46:56.912Z,77.74
2023-02-16T06:49:00.412Z,78.00
2023-02-16T06:51:02.583Z,77.62
2023-02-16T06:53:04.910Z,77.98
2023-02-16T06:55:07.676Z,78.25
2023-02-16T06:57:09.368Z,77.97
2023-02-16T06:59:11.812Z,77.74
2023-02-16T07:01:13.698Z,78.25
2023-02-16T07:03:15.632Z,78.71
2023-02-16T07:05:18.905Z,79.04
2023-02-16T07:07:21.006Z,78.55
2023-02-16T07:09:22.802Z,79.32
2023-02-16T07:11:24.477Z,79.27
2023-02-16T07:13:26.110Z,79.49
2023-02-16T07:15:27.756Z,79.48
2023-02-16T07:17:29.536Z,79.50
2023-02-16T07:19:31.891Z,79.65
2023-02-16T07:21:34.891Z,79.43
2023-02-16T07:23:36.460Z,79.35
2023-02-16T07:25:38.266Z,79.67
2023-02-16T07:27:39.841Z,79.28
2023-02-16T07:29:41.770Z,79.54
2023-02-16T07:31:43.475Z,80.02
2023-02-16T07:33:45.461Z,79.76
2023-02-16T07:35:47.498Z,79.78
2023-02-16T07:37:51.142Z,79.95
2023-02-16T07:39:52.739Z,79.82
2023-02-16T07:41:54.360Z,79.61
2023-02-16T07:43:55.939Z,79.66
2023-02-16T07:45:57.610Z,80.37
2023-02-16T07:47:59.788Z,80.38
2023-02-16T07:50:02.057Z,80.64
2023-02-16T07:52:03.810Z,80.23
2023-02-16T07:54:07.587Z,80.39
2023-02-16T07:56:09.500Z,80.35
2023-02-16T07:58:11.566Z,80.34
2023-02-16T08:00:14.416Z,79.91
2023-02-16T08:02:17.023Z,79.95
2023-02-16T08:04:18.754Z,79.41
2023-02-16T08:06:20.719Z,79.66
2023-02-16T08:08:22.461Z,79.09
2023-02-16T08:10:25.594Z,79.34
2023-02-16T08:12:27.483Z,79.00
2023-02-16T08:14:29.442Z,78.89
2023-02-16T08:16:31.440Z,78.54
2023-02-16T08:18:33.324Z,78.76
2023-02-16T08:20:53.875Z,77.96
2023-02-16T08:22:56.762Z,78.47
2023-02-16T08:24:58.928Z,78.34
2023-02-16T08:27:02.932Z,78.62
2023-02-16T08:29:06.067Z,78.57
2023-02-16T08:31:07.659Z,78.23
2023-02-16T08:33:09.260Z,78.01
2023-02-16T08:35:11.079Z,77.97
2023-02-16T08:37:13.412Z,78.08
2023-02-16T08:39:17.172Z,78.18
2023-02-16T08:41:19.775Z,77.46
2023-02-16T08:43:22.947Z,77.71
2023-02-16T08:45:24.520Z,76.79
2023-02-16T08:47:26.037Z,76.80
2023-02-16T08:49:28.029Z,77.09
2023-02-16T08:51:31.465Z,77.13
2023-02-16T08:53:33.260Z,76.93
2023-02-16T08:55:34.957Z,76.46
2023-02-16T08:57:36.650Z,76.41
2023-02-16T08:59:39.856Z,75.56
2023-02-16T09:01:41.548Z,75.94
2023-02-16T09:03:45.218Z,75.40
2023-02-16T09:05:47.123Z,74.91
2023-02-16T09:07:49.079Z,75.32
2023-02-16T09:09:50.938Z,74.79
2023-02-16T09:11:52.661Z,74.53
2023-02-16T09:13:54.398Z,74.84
2023-02-16T09:16:02.641Z,74.62
2023-02-16T09:18:04.709Z,74.31
2023-02-16T09:20:07.463Z,73.72
2023-02-16T09:22:09.052Z,73.43
2023-02-16T09:24:10.901Z,73.05
2023-02-16T09:26:12.670Z,73.43
2023-02-16T09:28:14.201Z,73.18
2023-02-16T09:30:16.060Z,74.05
2023-02-16T09:32:19.631Z,72.97
2023-02-16T09:34:23.202Z,72.75
2023-02-16T09:36:25.139Z,72.09
2023-02-16T09:38:26.746Z,72.67
2023-02-16T09:40:28.762Z,72.41
2023-02-16T09:42:41.294Z,72.56
2023-02-16T09:44:50.854Z,72.67
2023-02-16T09:46:56.481Z,71.29
2023-02-16T09:49:03.185Z,71.86
2023-02-16T09:51:06.844Z,70.19
2023-02-16T09:53:16.046Z,70.38
2023-02-16T09:55:19.894Z,69.43
2023-02-16T09:57:38.845Z,69.42
2023-02-16T09:59:49.092Z,69.30
2023-02-16T10:01:58.788Z,68.82
2023-02-16T10:04:28.158Z,69.15
2023-02-16T10:06:41.275Z,69.82
2023-02-16T10:08:47.236Z,69.02
2023-02-16T10:10:53.669Z,68.25
2023-02-16T10:13:00.153Z,67.81
2023-02-16T10:15:07.342Z,67.29
2023-02-16T10:17:17.440Z,68.07
2023-02-16T10:19:25.883Z,67.43
2023-02-16T10:21:29.918Z,66.41
2023-02-16T10:23:40.330Z,66.97
2023-02-16T10:25:48.047Z,66.69
2023-02-16T10:28:01.301Z,67.12
2023-02-16T10:30:03.061Z,65.56
2023-02-16T10:32:15.781Z,67.27
2023-02-16T10:34:23.288Z,65.61
2023-02-16T10:36:43.503Z,66.96
2023-02-16T10:38:52.325Z,65.90
2023-02-16T10:41:01.626Z,65.07
2023-02-16T10:43:11.726Z,64.76
2023-02-16T10:45:25.235Z,64.37
2023-02-16T10:47:37.377Z,63.14
2023-02-16T10:49:40.806Z,63.10
2023-02-16T10:51:48.089Z,63.46
2023-02-16T10:53:53.027Z,62.96
2023-02-16T10:55:57.158Z,62.12
2023-02-16T10:58:02.227Z,62.20
2023-02-16T11:00:08.440Z,61.69
2023-02-16T11:02:19.076Z,62.85
2023-02-16T11:04:38.008Z,63.91
2023-02-16T11:06:41.217Z,61.93
2023-02-16T11:08:48.549Z,62.42
2023-02-16T11:10:52.571Z,61.11
2023-02-16T11:12:56.718Z,61.61
2023-02-16T11:15:02.267Z,61.36
2023-02-16T11:17:08.216Z,61.15
2023-02-16T11:19:21.892Z,62.08
2023-02-16T11:21:44.799Z,63.04
2023-02-16T11:23:59.202Z,62.88
2023-02-16T11:26:04.599Z,60.37
2023-02-16T11:28:06.601Z,60.08
2023-02-16T11:30:17.752Z,60.85
2023-02-16T11:32:21.028Z,59.98
2023-02-16T11:34:32.267Z,60.76
2023-02-16T11:36:37.380Z,59.70
2023-02-16T11:38:40.610Z,59.85
2023-02-16T11:40:52.221Z,61.28
2023-02-16T11:42:56.511Z,59.62
2023-02-16T11:45:00.434Z,59.76
2023-02-16T11:47:04.975Z,58.68
2023-02-16T11:49:30.392Z,61.92
2023-02-16T11:51:34.930Z,60.24
2023-02-16T11:53:38.951Z,59.51
2023-02-16T11:55:45.061Z,59.42
2023-02-16T11:57:46.688Z,59.66
2023-02-16T11:59:48.307Z,59.13
2023-02-16T12:02:08.196Z,59.82
2023-02-16T12:04:30.137Z,60.06
2023-02-16T12:06:46.885Z,59.67
2023-02-16T12:09:03.032Z,60.40
2023-02-16T12:11:15.572Z,60.84
2023-02-16T12:13:25.574Z,60.53
2023-02-16T12:15:32.810Z,60.97
2023-02-16T12:17:49.300Z,61.67
2023-02-16T12:20:00.840Z,61.76
2023-02-16T12:22:16.261Z,61.54
2023-02-16T12:24:32.001Z,61.86
2023-02-16T12:26:44.850Z,61.22
2023-02-16T12:28:53.997Z,61.48
2023-02-16T12:31:07.192Z,61.56
2023-02-16T12:33:33.026Z,61.43
2023-02-16T12:35:50.358Z,62.13
2023-02-16T12:38:02.083Z,61.50
2023-02-16T12:40:20.245Z,62.71
2023-02-16T12:42:47.464Z,62.69
2023-02-16T12:44:53.824Z,61.99
2023-02-16T12:47:01.781Z,62.31
2023-02-16T12:49:15.171Z,62.32
2023-02-16T12:51:20.994Z,62.83
2023-02-16T12:53:27.370Z,62.67
2023-02-16T12:55:35.631Z,63.41
2023-02-16T12:57:44.197Z,63.44
2023-02-16T12:59:51.789Z,63.78
2023-02-16T13:01:56.496Z,64.03
2023-02-16T13:04:04.825Z,63.98
2023-02-16T13:06:15.410Z,64.62
2023-02-16T13:08:25.351Z,64.35
2023-02-16T13:10:33.874Z,64.22
2023-02-16T13:12:41.988Z,64.30
2023-02-16T13:14:54.098Z,64.24
2023-02-16T13:16:59.847Z,63.72
2023-02-16T13:19:01.862Z,63.82
2023-02-16T13:21:09.989Z,63.43
2023-02-16T13:23:41.844Z,64.70
2023-02-16T13:26:01.401Z,64.09
2023-02-16T13:28:16.285Z,64.49
2023-02-16T13:31:00.021Z,64.16
2023-02-16T13:33:16.043Z,64.28
2023-02-16T13:35:56.510Z,64.61
2023-02-16T13:38:05.358Z,63.97
2023-02-16T13:40:43.902Z,64.30
2023-02-16T13:43:08.598Z,64.48
2023-02-16T13:45:17.795Z,64.47
2023-02-16T13:47:27.710Z,63.80
2023-02-16T13:49:33.560Z,63.74
2023-02-16T13:51:46.504Z,64.77
2023-02-16T13:53:56.413Z,64.33
2023-02-16T13:56:20.199Z,64.72
2023-02-16T13:58:31.273Z,64.90
2023-02-16T14:00:37.044Z,64.21
2023-02-16T14:02:54.841Z,64.88
2023-02-16T14:05:09.618Z,64.76
2023-02-16T14:07:31.312Z,65.36
2023-02-16T14:09:45.875Z,65.40
2023-02-16T14:12:13.398Z,65.52
2023-02-16T14:14:27.272Z,65.58
2023-02-16T14:16:34.092Z,65.41
2023-02-16T14:18:42.761Z,65.31
2023-02-16T14:20:44.508Z,65.72
2023-02-16T14:22:50.998Z,65.42
2023-02-16T14:24:54.997Z,66.09
2023-02-16T14:26:58.676Z,65.92
2023-02-16T14:29:10.781Z,66.25
2023-02-16T14:31:18.113Z,65.73
2023-02-16T14:33:24.006Z,66.11
2023-02-16T14:35:31.713Z,66.46
2023-02-16T14:37:39.603Z,66.06
2023-02-16T14:39:58.567Z,65.59
2023-02-16T14:42:08.400Z,65.92
2023-02-16T14:44:32.313Z,66.72
2023-02-16T14:46:47.357Z,66.23
2023-02-16T14:49:29.025Z,65.87
2023-02-16T14:51:56.906Z,66.55
2023-02-16T14:54:19.723Z,65.98
2023-02-16T14:56:40.949Z,66.29
2023-02-16T14:58:51.925Z,66.38
2023-02-16T15:01:02.928Z,66.69
2023-02-16T15:03:17.318Z,66.61
2023-02-16T15:05:21.709Z,67.15
2023-02-16T15:07:27.395Z,67.38
2023-02-16T15:09:31.511Z,67.55
2023-02-16T15:11:35.716Z,67.43
2023-02-16T15:13:37.786Z,67.45
2023-02-16T15:15:44.215Z,67.96
2023-02-16T15:17:47.602Z,67.51
2023-02-16T15:19:52.493Z,67.82
2023-02-16T15:22:08.072Z,67.60
2023-02-16T15:24:22.001Z,67.90
2023-02-16T15:26:26.036Z,68.30
2023-02-16T15:28:30.531Z,68.27
2023-02-16T15:30:34.127Z,68.06
2023-02-16T15:32:36.265Z,68.50
2023-02-16T15:34:38.170Z,68.80
2023-02-16T15:36:42.755Z,68.76
2023-02-16T15:38:56.150Z,69.03
2023-02-16T15:41:01.719Z,68.87
2023-02-16T15:43:09.775Z,69.02
2023-02-16T15:45:28.609Z,69.11
2023-02-16T15:47:30.279Z,69.51
2023-02-16T15:49:31.944Z,69.02
2023-02-16T15:51:35.474Z,69.31
2023-02-16T15:53:47.361Z,69.70
2023-02-16T15:55:49.186Z,69.13
2023-02-16T15:57:52.620Z,69.94
2023-02-16T15:59:57.651Z,70.02
2023-02-16T16:02:02.782Z,69.62
2023-02-16T16:04:08.141Z,69.92
2023-02-16T16:06:09.772Z,69.60
2023-02-16T16:08:14.214Z,70.00
2023-02-16T16:10:19.813Z,69.83
2023-02-16T16:12:22.328Z,70.10
2023-02-16T16:14:27.317Z,69.97
2023-02-16T16:16:29.450Z,70.18
2023-02-16T16:18:43.157Z,69.90
2023-02-16T16:20:44.756Z,70.34
2023-02-16T16:22:46.657Z,70.60
2023-02-16T16:24:48.254Z,70.14
2023-02-16T16:26:52.706Z,70.33
2023-02-16T16:28:54.681Z,70.27
2023-02-16T16:31:08.649Z,70.06
2023-02-16T16:33:13.017Z,70.69
2023-02-16T16:35:22.153Z,70.02
2023-02-16T16:37:29.735Z,70.46
2023-02-16T16:39:34.515Z,70.96
2023-02-16T16:41:36.227Z,70.92
2023-02-16T16:43:54.548Z,70.64
2023-02-16T16:46:10.394Z,71.14
2023-02-16T16:48:18.619Z,71.19
2023-02-16T16:50:33.137Z,70.87
2023-02-16T16:52:38.333Z,71.14
2023-02-16T16:54:40.158Z,71.48
2023-02-16T16:56:41.972Z,71.12
2023-02-16T16:58:43.677Z,71.28
2023-02-16T17:00:45.456Z,71.41
2023-02-16T17:02:48.824Z,71.14
2023-02-16T17:04:52.036Z,71.45
2023-02-16T17:06:53.755Z,71.81
2023-02-16T17:08:55.407Z,71.50
2023-02-16T17:10:56.955Z,71.85
2023-02-16T17:13:00.273Z,71.84
2023-02-16T17:15:03.216Z,71.92
2023-02-16T17:17:05.044Z,72.09
2023-02-16T17:19:07.158Z,71.76
2023-02-16T17:21:12.914Z,72.14
2023-02-16T17:23:16.790Z,71.91
2023-02-16T17:25:19.038Z,72.26
2023-02-16T17:27:20.630Z,72.12
2023-02-16T17:29:22.220Z,71.96
2023-02-16T17:31:23.946Z,72.36
2023-02-16T17:33:25.714Z,72.17
2023-02-16T17:35:28.261Z,72.43
2023-02-16T17:37:32.440Z,72.02
2023-02-16T17:39:34.641Z,72.60
2023-02-16T17:41:36.259Z,72.08
2023-02-16T17:43:38.016Z,72.26
2023-02-16T17:45:40.763Z,72.68
2023-02-16T17:47:43.397Z,72.75
2023-02-16T17:49:45.143Z,72.73
2023-02-16T17:51:46.708Z,73.03
2023-02-16T17:53:49.761Z,72.40
2023-02-16T17:55:53.910Z,72.32
2023-02-16T17:57:55.516Z,73.12
2023-02-16T17:59:57.242Z,72.69
2023-02-16T18:01:58.920Z,73.23
2023-02-16T18:04:01.602Z,72.95
2023-02-16T18:06:03.637Z,73.41
2023-02-16T18:08:06.222Z,73.88
2023-02-16T18:10:18.468Z,73.49
2023-02-16T18:12:20.142Z,73.75
2023-02-16T18:14:21.784Z,73.72
2023-02-16T18:16:27.642Z,74.41
2023-02-16T18:18:30.150Z,73.92
2023-02-16T18:20:32.001Z,74.42
2023-02-16T18:22:34.068Z,74.24
2023-02-16T18:24:35.826Z,74.49
2023-02-16T18:26:39.010Z,74.45
2023-02-16T18:28:40.761Z,74.65
2023-02-16T18:30:42.442Z,75.11
2023-02-16T18:32:44.951Z,74.76
2023-02-16T18:34:46.918Z,74.75
2023-02-16T18:36:48.535Z,74.73
2023-02-16T18:38:50.323Z,75.19
2023-02-16T18:40:53.474Z,74.86
2023-02-16T18:42:56.748Z,74.74
2023-02-16T18:44:58.486Z,74.58
2023-02-16T18:47:00.301Z,75.46
2023-02-16T18:49:01.906Z,75.25
2023-02-16T18:51:04.630Z,75.29
2023-02-16T18:53:06.667Z,75.32
2023-02-16T18:55:09.221Z,75.40
2023-02-16T18:57:10.929Z,75.36
2023-02-16T18:59:14.118Z,75.85
2023-02-16T19:01:23.572Z,75.83
2023-02-16T19:03:25.495Z,75.79
2023-02-16T19:05:27.142Z,76.14
2023-02-16T19:07:28.843Z,76.28
2023-02-16T19:09:30.652Z,76.18
2023-02-16T19:11:32.366Z,76.24
2023-02-16T19:13:34.214Z,76.06
2023-02-16T19:15:37.486Z,76.41
2023-02-16T19:17:39.216Z,75.92
2023-02-16T19:19:40.803Z,75.93
2023-02-16T19:21:42.452Z,76.28
2023-02-16T19:23:44.042Z,76.06
2023-02-16T19:25:45.845Z,75.86
2023-02-16T19:27:48.111Z,76.47
2023-02-16T19:29:49.765Z,76.70
2023-02-16T19:31:52.987Z,76.84
2023-02-16T19:33:55.333Z,76.42
2023-02-16T19:36:02.136Z,76.62
2023-02-16T19:38:04.051Z,76.28
2023-02-16T19:40:07.741Z,76.57
2023-02-16T19:42:09.423Z,76.91
2023-02-16T19:44:13.628Z,76.94
2023-02-16T19:46:16.392Z,76.64
2023-02-16T19:48:19.398Z,76.44
2023-02-16T19:50:21.016Z,76.60
2023-02-16T19:52:22.583Z,76.76
2023-02-16T19:54:24.311Z,76.51
2023-02-16T19:56:27.108Z,76.72
2023-02-16T19:58:28.753Z,76.67
2023-02-16T20:00:30.589Z,76.92
2023-02-16T20:02:32.211Z,76.52
2023-02-16T20:04:35.287Z,77.03
2023-02-16T20:06:37.312Z,76.70
2023-02-16T20:08:38.895Z,76.83
2023-02-16T20:10:42.758Z,77.37
2023-02-16T20:12:44.427Z,77.07
2023-02-16T20:14:46.051Z,76.95
2023-02-16T20:16:47.771Z,77.06
2023-02-16T20:18:50.071Z,77.17
2023-02-16T20:20:59.029Z,76.64
2023-02-16T20:23:00.709Z,77.66
2023-02-16T20:25:02.663Z,76.73
2023-02-16T20:27:04.355Z,77.03
2023-02-16T20:29:08.520Z,76.97
2023-02-16T20:31:12.261Z,77.17
2023-02-16T20:33:14.149Z,76.93
2023-02-16T20:35:16.424Z,77.21
2023-02-16T20:37:19.481Z,77.15
2023-02-16T20:39:22.063Z,76.87
2023-02-16T20:41:24.496Z,77.25
2023-02-16T20:43:27.293Z,77.48
2023-02-16T20:45:29.013Z,76.98
2023-02-16T20:47:33.366Z,77.67
2023-02-16T20:49:35.164Z,77.05
2023-02-16T20:51:39.439Z,77.20
2023-02-16T20:53:42.542Z,77.77
2023-02-16T20:55:44.221Z,77.38
2023-02-16T20:57:46.025Z,77.57
2023-02-16T20:59:47.819Z,77.49
2023-02-16T21:01:52.113Z,77.87
2023-02-16T21:03:56.101Z,77.91
2023-02-16T21:05:57.938Z,77.89
2023-02-16T21:07:59.494Z,77.91
2023-02-16T21:10:03.208Z,78.58
2023-02-16T21:12:05.371Z,77.96
2023-02-16T21:14:08.365Z,78.55
2023-02-16T21:16:10.843Z,78.24
2023-02-16T21:18:12.667Z,77.92
2023-02-16T21:20:14.526Z,78.62
2023-02-16T21:22:16.143Z,78.28
2023-02-16T21:24:18.025Z,78.31
2023-02-16T21:26:24.207Z,78.33
2023-02-16T21:28:26.969Z,78.33
2023-02-16T21:30:28.618Z,78.59
2023-02-16T21:32:30.281Z,78.54
2023-02-16T21:34:32.236Z,78.78
2023-02-16T21:36:33.831Z,78.82
2023-02-16T21:38:36.988Z,78.66
2023-02-16T21:40:38.612Z,78.56
2023-02-16T21:42:41.944Z,78.79
2023-02-16T21:44:43.689Z,79.02
2023-02-16T21:46:47.674Z,78.72
2023-02-16T21:48:49.352Z,78.87
2023-02-16T21:50:50.969Z,78.73
2023-02-16T21:52:53.133Z,79.31
2023-02-16T21:54:54.689Z,79.36
2023-02-16T21:56:56.776Z,78.93
2023-02-16T21:58:59.999Z,78.95
2023-02-16T22:01:01.817Z,78.80
2023-02-16T22:03:04.478Z,78.97
2023-02-16T22:05:06.425Z,79.07
2023-02-16T22:07:08.006Z,78.83
2023-02-16T22:09:11.735Z,78.72
2023-02-16T22:11:14.055Z,78.69
2023-02-16T22:13:15.902Z,78.58
2023-02-16T22:15:19.020Z,79.05
2023-02-16T22:17:20.591Z,79.28
2023-02-16T22:19:22.199Z,79.00
2023-02-16T22:21:23.870Z,78.72
2023-02-16T22:23:25.647Z,78.74
2023-02-16T22:25:27.471Z,78.92
2023-02-16T22:27:29.109Z,78.69
2023-02-16T22:29:30.939Z,78.87
2023-02-16T22:31:34.693Z,79.04
2023-02-16T22:33:36.580Z,79.02
2023-02-16T22:35:38.466Z,78.95
2023-02-16T22:37:40.495Z,78.88
2023-02-16T22:39:42.167Z,78.95
2023-02-16T22:41:44.011Z,79.07
2023-02-16T22:43:46.595Z,78.92
2023-02-16T22:45:48.227Z,79.30
2023-02-16T22:47:51.334Z,79.07
2023-02-16T22:49:53.018Z,79.10
2023-02-16T22:51:54.757Z,79.25
2023-02-16T22:53:57.554Z,78.97
2023-02-16T22:55:59.329Z,79.10
2023-02-16T22:58:00.884Z,79.14
2023-02-16T23:00:02.886Z,79.19
2023-02-16T23:02:04.872Z,79.51
2023-02-16T23:04:08.064Z,79.69
2023-02-16T23:06:13.593Z,79.76
2023-02-16T23:08:15.648Z,80.13
2023-02-16T23:10:17.287Z,79.68
2023-02-16T23:12:19.129Z,79.72
2023-02-16T23:14:20.999Z,80.12
2023-02-16T23:16:24.737Z,80.15
2023-02-16T23:18:26.448Z,80.33
2023-02-16T23:20:29.644Z,80.08
2023-02-16T23:22:31.233Z,80.39
2023-02-16T23:24:33.253Z,79.91
2023-02-16T23:26:34.874Z,79.56
2023-02-16T23:28:37.994Z,79.79
2023-02-16T23:30:43.773Z,80.29
2023-02-16T23:32:45.936Z,79.75
2023-02-16T23:34:47.542Z,80.32
2023-02-16T23:36:50.689Z,79.90
2023-02-16T23:38:52.512Z,79.96
2023-02-16T23:40:57.926Z,80.18
2023-02-16T23:42:59.985Z,79.80
2023-02-16T23:45:01.702Z,79.96
2023-02-16T23:47:03.300Z,79.58
2023-02-16T23:49:04.977Z,80.04
2023-02-16T23:51:06.684Z,79.93
2023-02-16T23:53:10.079Z,79.93
2023-02-16T23:55:11.644Z,80.31
2023-02-16T23:57:13.239Z,80.04
2023-02-16T23:59:14.923Z,79.98
